Mesa Verde, CO (81330)

5:12 PM MDT on July 28, 2015 (GMT -0600)
RAWS | | Change Station
CLOSE
Current Station
Personal Weather Station
Location: Mesa Verde, CO
Elevation: 7819 ft
Nearby Weather Stations

Elev 7819 ft 37.30 °N, 108.41 °W | Updated 32 minutes ago

Partly Cloudy
Partly Cloudy
80.0 °F
Feels Like 80.0 °F
N
10.0
Wind Variable Wind from NW
Gusts 19.0 mph

Today
High -- | Low -- °F
--% Chance of Precip.
Yesterday
High -- | Low -- °F
Precip. -- in
6:15 AM 8:25 PM
Waxing Gibbous, 92% visible
Pressure 29.91 in
Visibility 10.0 miles
Clouds Clear
Dew Point 27.0 °F
Humidity 14%
Rainfall in
Snow Depth Not available.
UV 6 out of 12
Pollen 4.70 out of 12
Air Quality Not available.
Flu Activity Not available.
METAR KCEZ 282253Z AUTO 32005G16KT 10SM CLR 32/M06 A3014 RMK AO2 SLP128 T03171056

More Conditions Fewer Conditions

Pressure 29.91 in
Visibility 10.0 miles
Clouds Clear
Dew Point 27.0 °F
Humidity 14%
Rainfall in
Snow Depth Not available.
UV 6 out of 12
Pollen 4.70 out of 12
Air Quality Not available.
Flu Activity Not available.
METAR KCEZ 282253Z AUTO 32005G16KT 10SM CLR 32/M06 A3014 RMK AO2 SLP128 T03171056

More Conditions Fewer Conditions

10-Day Weather Forecast

×

Almanac

Astronomy

Jul. 28, 2015 Rise Set
Actual Time
Civil Twilight
Nautical Twilight
Astronomical Twilight
Moon
Length of Visible Light
Length of Day
Tomorrow will be .
, % of the Moon is Illuminated

Today's Extremes

State Highs State Lows

Community

WunderPhotos

Upload Photos

1,841,965 photos uploaded!

WunderBlogs® & News

Nearby

Air Quality

  Air Quality AQ Index Pollutant
Not available.

Snow Depth

Station Depth Elevation

Earthquake Activity

City Distance Mag. Time & Date
Minimum magnitude displayed is 2.5.

Coastal Water Temperatures

Place Temperature

Stations

Nearby Weather Stations

Station Location Temp. Windchill Dew Point Humidity Wind Precip. Elev Updated Type